Time;durP1;ratioP1;P1;durP2;ratioP2;P2;SDS_P1;SDS_P2;PMS_P1;PMS_P2;Temp;Humidity;BMP_temperature;BMP_pressure;BME280_temperature;BME280_humidity;BME280_pressure;Samples;Min_cycle;Max_cycle;Signal;HPM_P1;HPM_P2
2022/05/27 00:00:42;;;;;;;12.20;7.77;;;;;;;;;;4986917;28;20688;-72
2022/05/27 00:03:11;;;;;;;13.97;7.83;;;;;;;;;;4993780;28;20240;-71
2022/05/27 00:05:40;;;;;;;13.43;7.60;;;;;;;;;;4991886;28;20220;-72
2022/05/27 00:08:09;;;;;;;13.33;7.67;;;;;;;;;;4992060;28;20228;-72
2022/05/27 00:10:39;;;;;;;12.40;7.97;;;;;;;;;;4993353;28;20216;-72
2022/05/27 00:13:08;;;;;;;10.73;7.67;;;;;;;;;;4992491;28;20263;-71
2022/05/27 00:15:37;;;;;;;13.43;8.00;;;;;;;;;;4993226;28;20205;-72
2022/05/27 00:18:05;;;;;;;13.20;8.53;;;;;;;;;;4991418;28;20237;-72
2022/05/27 00:20:34;;;;;;;15.13;8.93;;;;;;;;;;4993227;28;20221;-72
2022/05/27 00:23:03;;;;;;;12.43;8.97;;;;;;;;;;4992823;28;20232;-72
2022/05/27 00:25:31;;;;;;;12.77;9.47;;;;;;;;;;4992554;28;20212;-72
2022/05/27 00:28:01;;;;;;;14.93;10.10;;;;;;;;;;4992329;28;20819;-73
2022/05/27 00:30:30;;;;;;;13.90;9.70;;;;;;;;;;4993131;28;20411;-73
2022/05/27 00:32:59;;;;;;;15.00;10.53;;;;;;;;;;4991450;28;20296;-73
2022/05/27 00:35:28;;;;;;;12.80;10.30;;;;;;;;;;4991368;28;20213;-72
2022/05/27 00:37:57;;;;;;;14.10;10.47;;;;;;;;;;4992853;28;20228;-74
2022/05/27 00:40:26;;;;;;;15.10;11.07;;;;;;;;;;4991567;28;20208;-72
2022/05/27 00:42:55;;;;;;;15.80;11.43;;;;;;;;;;4991980;28;20619;-72
2022/05/27 00:45:27;;;;;;;12.00;10.73;;;;;;;;;;4990540;28;20283;-72
2022/05/27 00:47:57;;;;;;;13.23;11.80;;;;;;;;;;4992610;28;20235;-73
2022/05/27 00:50:28;;;;;;;12.87;11.37;;;;;;;;;;4992206;28;20255;-73
2022/05/27 00:52:57;;;;;;;14.33;12.13;;;;;;;;;;4992734;28;20212;-73
2022/05/27 00:55:28;;;;;;;13.03;11.73;;;;;;;;;;4991934;28;20205;-72
2022/05/27 00:57:59;;;;;;;14.87;11.77;;;;;;;;;;4992685;28;20228;-73
2022/05/27 01:00:28;;;;;;;18.33;12.97;;;;;;;;;;4989751;28;20256;-73
2022/05/27 01:02:57;;;;;;;13.67;12.10;;;;;;;;;;4992496;28;20287;-73
2022/05/27 01:05:26;;;;;;;12.87;11.57;;;;;;;;;;4991365;28;20216;-73
2022/05/27 01:07:55;;;;;;;14.27;12.87;;;;;;;;;;5052817;22;20551;-73
2022/05/27 01:10:36;;;;;;;13.47;12.03;;;;;;;;;;5053215;28;20290;-73
2022/05/27 01:13:12;;;;;;;14.33;13.03;;;;;;;;;;5056349;28;20202;-72
2022/05/27 01:15:48;;;;;;;17.13;13.80;;;;;;;;;;5053277;28;20234;-73
2022/05/27 01:20:18;;;;;;;15.60;14.13;;;;;;;;;;5066978;28;20222;-74
2022/05/27 01:21:20;;;;;;;16.40;14.70;;;;;;;;;;5075797;28;20225;-73
2022/05/27 01:24:08;;;;;;;17.57;15.83;;;;;;;;;;5062176;28;20607;-73
2022/05/27 01:26:54;;;;;;;17.43;15.70;;;;;;;;;;5058747;28;20199;-74
2022/05/27 01:29:44;;;;;;;18.17;16.47;;;;;;;;;;5073843;28;20252;-74
2022/05/27 01:32:16;;;;;;;19.00;17.00;;;;;;;;;;5042686;28;20217;-74
2022/05/27 01:34:50;;;;;;;20.47;18.27;;;;;;;;;;5075200;28;20292;-74
2022/05/27 01:37:22;;;;;;;19.87;17.83;;;;;;;;;;5072686;28;20222;-74
2022/05/27 01:39:55;;;;;;;18.33;16.53;;;;;;;;;;5075756;28;20259;-74
2022/05/27 01:42:27;;;;;;;19.23;17.43;;;;;;;;;;5075259;28;20222;-75
2022/05/27 01:44:57;;;;;;;18.60;16.87;;;;;;;;;;5075016;28;20206;-74
2022/05/27 01:47:32;;;;;;;18.90;17.03;;;;;;;;;;5074633;28;20230;-74
2022/05/27 01:53:26;;;;;;;6.93;6.33;;;;;;;;;;5061971;28;20270;-73
2022/05/27 01:56:00;;;;;;;3.00;2.70;;;;;;;;;;5068108;28;20203;-73
2022/05/27 01:58:31;;;;;;;2.07;1.87;;;;;;;;;;5062431;28;20623;-73
2022/05/27 02:01:00;;;;;;;2.57;2.00;;;;;;;;;;5075368;28;20211;-72
2022/05/27 02:03:31;;;;;;;1.97;1.80;;;;;;;;;;5074288;28;20630;-72
2022/05/27 02:06:02;;;;;;;2.07;1.87;;;;;;;;;;5073602;28;20653;-73
2022/05/27 02:08:34;;;;;;;2.43;1.80;;;;;;;;;;5070869;28;20276;-72
2022/05/27 02:11:05;;;;;;;2.27;2.00;;;;;;;;;;5075005;28;20276;-73
2022/05/27 02:13:38;;;;;;;4.13;1.60;;;;;;;;;;5074355;28;20199;-72
2022/05/27 02:16:08;;;;;;;2.70;1.63;;;;;;;;;;5073477;28;20234;-72
2022/05/27 02:18:41;;;;;;;2.53;1.80;;;;;;;;;;5072259;28;20222;-72
2022/05/27 02:21:12;;;;;;;2.00;1.80;;;;;;;;;;5072825;28;20268;-72
2022/05/27 02:23:42;;;;;;;3.20;2.00;;;;;;;;;;5074343;28;20284;-73
2022/05/27 02:26:15;;;;;;;4.07;2.20;;;;;;;;;;5058940;28;20226;-72
2022/05/27 02:28:57;;;;;;;2.87;2.20;;;;;;;;;;5074898;28;20230;-71
2022/05/27 02:31:27;;;;;;;2.70;2.20;;;;;;;;;;5073472;28;20198;-72
2022/05/27 02:36:46;;;;;;;3.60;2.30;;;;;;;;;;5073862;28;20225;-72
2022/05/27 02:39:15;;;;;;;3.67;2.57;;;;;;;;;;5073613;28;20226;-72
2022/05/27 02:41:45;;;;;;;4.40;2.30;;;;;;;;;;5074765;28;20259;-71
2022/05/27 02:44:19;;;;;;;3.40;3.10;;;;;;;;;;5070936;28;20214;-72
2022/05/27 02:46:51;;;;;;;4.90;3.10;;;;;;;;;;5056282;28;20649;-73
2022/05/27 02:49:24;;;;;;;3.73;3.33;;;;;;;;;;5059968;28;20234;-72
2022/05/27 02:51:57;;;;;;;3.87;3.47;;;;;;;;;;5074217;28;20246;-72
2022/05/27 02:54:30;;;;;;;4.03;3.63;;;;;;;;;;5072380;28;20245;-72
2022/05/27 02:57:01;;;;;;;4.20;3.73;;;;;;;;;;5073947;28;20612;-72
2022/05/27 02:59:31;;;;;;;3.97;3.33;;;;;;;;;;5072775;28;20202;-72
2022/05/27 03:02:05;;;;;;;3.37;3.07;;;;;;;;;;5074041;28;20677;-73
2022/05/27 03:04:35;;;;;;;3.57;3.10;;;;;;;;;;5072484;28;20308;-71
2022/05/27 03:07:10;;;;;;;3.87;3.47;;;;;;;;;;5074034;28;20264;-71
2022/05/27 03:09:46;;;;;;;4.20;3.00;;;;;;;;;;5072869;28;20213;-72
2022/05/27 03:12:18;;;;;;;3.83;3.43;;;;;;;;;;5074304;28;20206;-71
2022/05/27 03:15:02;;;;;;;3.53;3.23;;;;;;;;;;5071599;28;20206;-72
2022/05/27 03:17:42;;;;;;;3.23;2.93;;;;;;;;;;5072245;28;20279;-72
2022/05/27 03:20:18;;;;;;;3.07;2.77;;;;;;;;;;5073543;28;20675;-72
2022/05/27 03:22:51;;;;;;;3.93;3.20;;;;;;;;;;5073117;28;20684;-72
2022/05/27 03:25:24;;;;;;;4.30;3.03;;;;;;;;;;5072794;28;20202;-72
2022/05/27 03:27:56;;;;;;;3.20;2.90;;;;;;;;;;5072030;28;20230;-71
2022/05/27 03:30:28;;;;;;;4.83;2.97;;;;;;;;;;5073842;28;20259;-72
2022/05/27 03:33:01;;;;;;;3.93;3.13;;;;;;;;;;5072949;28;20198;-71
2022/05/27 03:35:34;;;;;;;3.37;2.93;;;;;;;;;;5060166;28;20253;-72
2022/05/27 03:38:06;;;;;;;3.67;3.10;;;;;;;;;;5062064;28;20230;-71
2022/05/27 03:40:37;;;;;;;3.80;3.50;;;;;;;;;;5072726;28;20210;-72
2022/05/27 03:43:05;;;;;;;4.23;3.50;;;;;;;;;;5071809;28;20283;-72
2022/05/27 03:45:47;;;;;;;5.33;3.50;;;;;;;;;;5067241;28;20203;-72
2022/05/27 03:48:19;;;;;;;3.67;3.33;;;;;;;;;;5072581;28;20245;-72
2022/05/27 03:50:50;;;;;;;4.63;3.57;;;;;;;;;;5073159;28;20199;-72
2022/05/27 03:53:19;;;;;;;6.40;3.73;;;;;;;;;;5072991;28;20202;-72
2022/05/27 03:55:47;;;;;;;5.57;4.03;;;;;;;;;;5070781;28;20350;-72
2022/05/27 03:58:16;;;;;;;5.97;4.00;;;;;;;;;;5073370;28;20229;-71
2022/05/27 04:00:45;;;;;;;4.13;3.80;;;;;;;;;;5072367;28;20198;-71
2022/05/27 04:03:14;;;;;;;5.03;4.10;;;;;;;;;;5072910;28;20218;-71
2022/05/27 04:05:42;;;;;;;6.23;4.30;;;;;;;;;;5071339;28;20264;-72
2022/05/27 04:08:12;;;;;;;6.43;4.43;;;;;;;;;;5072069;28;20241;-72
2022/05/27 04:10:41;;;;;;;4.60;4.03;;;;;;;;;;5070345;28;20202;-73
2022/05/27 04:13:09;;;;;;;4.77;4.27;;;;;;;;;;5071456;28;20200;-73
2022/05/27 04:15:38;;;;;;;4.07;3.67;;;;;;;;;;5072072;28;20207;-72
2022/05/27 04:18:06;;;;;;;6.33;4.27;;;;;;;;;;5071382;28;20705;-72
2022/05/27 04:20:35;;;;;;;5.07;4.03;;;;;;;;;;5072667;28;20186;-71
2022/05/27 04:23:03;;;;;;;8.83;4.17;;;;;;;;;;5071034;28;20222;-72
2022/05/27 04:25:33;;;;;;;7.27;4.33;;;;;;;;;;5071876;28;20208;-72
2022/05/27 04:28:02;;;;;;;5.50;4.47;;;;;;;;;;5071707;28;20261;-72
2022/05/27 04:30:30;;;;;;;7.13;4.27;;;;;;;;;;5071921;28;20593;-72
2022/05/27 04:32:59;;;;;;;7.20;4.80;;;;;;;;;;5072247;28;20251;-71
2022/05/27 04:35:27;;;;;;;6.87;5.20;;;;;;;;;;5071082;28;20213;-71
2022/05/27 04:37:57;;;;;;;8.30;5.50;;;;;;;;;;5071351;28;20276;-71
2022/05/27 04:40:25;;;;;;;7.03;5.93;;;;;;;;;;5071283;28;20206;-71
2022/05/27 04:42:55;;;;;;;9.83;5.63;;;;;;;;;;5073495;28;20762;-72
2022/05/27 04:45:24;;;;;;;7.47;5.73;;;;;;;;;;5074116;28;20668;-73
2022/05/27 04:47:53;;;;;;;8.63;5.73;;;;;;;;;;5074435;28;20229;-72
2022/05/27 04:50:22;;;;;;;6.03;5.00;;;;;;;;;;5076939;28;20206;-72
2022/05/27 04:52:50;;;;;;;5.97;4.83;;;;;;;;;;5075207;28;20255;-72
2022/05/27 04:55:19;;;;;;;6.87;5.03;;;;;;;;;;5075321;28;20206;-72
2022/05/27 04:57:50;;;;;;;6.93;5.30;;;;;;;;;;5074968;28;20225;-72
2022/05/27 05:00:21;;;;;;;8.87;5.67;;;;;;;;;;5075773;28;20210;-71
2022/05/27 05:02:50;;;;;;;6.93;5.40;;;;;;;;;;5075066;28;20228;-73
2022/05/27 05:05:21;;;;;;;8.63;5.70;;;;;;;;;;5075538;28;20210;-72
2022/05/27 05:08:08;;;;;;;5.00;4.50;;;;;;;;;;5075699;28;20238;-73
2022/05/27 05:10:38;;;;;;;7.00;5.10;;;;;;;;;;5063159;28;20198;-72
2022/05/27 05:13:06;;;;;;;10.93;5.67;;;;;;;;;;5061315;28;20202;-72
2022/05/27 05:15:36;;;;;;;8.53;4.80;;;;;;;;;;5075475;28;20611;-72
2022/05/27 05:18:04;;;;;;;9.27;5.30;;;;;;;;;;5071385;28;20225;-72
2022/05/27 05:20:33;;;;;;;4.90;4.37;;;;;;;;;;5078210;28;20209;-72
2022/05/27 05:23:02;;;;;;;7.43;4.80;;;;;;;;;;5095086;28;20247;-72
2022/05/27 05:25:32;;;;;;;6.87;4.30;;;;;;;;;;5064817;28;20203;-71
2022/05/27 05:28:02;;;;;;;6.50;4.87;;;;;;;;;;5057268;28;20233;-72
2022/05/27 05:30:37;;;;;;;6.53;5.20;;;;;;;;;;5075377;28;20575;-72
2022/05/27 05:33:05;;;;;;;7.17;4.80;;;;;;;;;;5073717;28;20628;-72
2022/05/27 05:35:34;;;;;;;6.13;4.60;;;;;;;;;;5065396;28;20272;-72
2022/05/27 05:38:03;;;;;;;8.50;4.53;;;;;;;;;;5063547;28;20222;-72
2022/05/27 05:40:33;;;;;;;7.33;5.00;;;;;;;;;;5073517;28;20203;-71
2022/05/27 05:43:02;;;;;;;6.13;4.47;;;;;;;;;;5068506;28;20570;-72
2022/05/27 05:45:31;;;;;;;7.17;4.30;;;;;;;;;;5063247;28;21899;-73
2022/05/27 05:48:01;;;;;;;8.33;4.13;;;;;;;;;;5071859;28;20226;-72
2022/05/27 05:50:31;;;;;;;11.00;5.17;;;;;;;;;;5066109;28;20202;-71
2022/05/27 05:52:59;;;;;;;6.50;4.17;;;;;;;;;;5074156;28;20207;-71
2022/05/27 05:55:31;;;;;;;7.23;4.43;;;;;;;;;;5071589;28;20198;-71
2022/05/27 05:57:59;;;;;;;6.37;4.33;;;;;;;;;;5073772;28;20693;-71
2022/05/27 06:00:31;;;;;;;9.87;4.30;;;;;;;;;;5062566;28;20227;-72
2022/05/27 06:03:01;;;;;;;7.10;4.27;;;;;;;;;;5074942;28;20720;-71
2022/05/27 06:05:30;;;;;;;5.20;3.27;;;;;;;;;;5070294;28;20219;-72
2022/05/27 06:07:59;;;;;;;7.87;5.13;;;;;;;;;;5074711;28;20223;-72
2022/05/27 06:10:27;;;;;;;10.47;6.70;;;;;;;;;;5072179;28;20267;-73
2022/05/27 06:12:57;;;;;;;9.30;5.13;;;;;;;;;;5074092;28;20198;-72
2022/05/27 06:15:26;;;;;;;8.83;5.00;;;;;;;;;;5067925;28;20202;-72
2022/05/27 06:17:54;;;;;;;10.47;4.20;;;;;;;;;;5073624;28;20218;-71
2022/05/27 06:20:24;;;;;;;7.07;4.97;;;;;;;;;;5081829;28;20284;-72
2022/05/27 06:22:53;;;;;;;10.50;6.23;;;;;;;;;;5058421;28;20205;-71
2022/05/27 06:25:26;;;;;;;11.60;4.23;;;;;;;;;;5074044;28;20716;-72
2022/05/27 06:36:25;;;;;;;9.10;4.53;;;;;;;;;;5061756;28;20198;-72
2022/05/27 06:38:54;;;;;;;9.83;3.97;;;;;;;;;;5071453;28;20253;-72
2022/05/27 06:41:22;;;;;;;7.87;4.10;;;;;;;;;;5071486;28;20629;-72
2022/05/27 06:43:50;;;;;;;8.37;3.67;;;;;;;;;;5069217;28;20194;-72
2022/05/27 06:46:21;;;;;;;8.67;3.67;;;;;;;;;;5071302;28;20213;-72
2022/05/27 06:48:49;;;;;;;7.40;3.10;;;;;;;;;;5064128;28;20280;-72
2022/05/27 06:51:18;;;;;;;9.07;3.13;;;;;;;;;;5054425;28;20212;-72
2022/05/27 06:53:48;;;;;;;9.70;4.63;;;;;;;;;;5063849;28;20660;-72
2022/05/27 06:56:17;;;;;;;7.17;3.57;;;;;;;;;;5073360;28;20645;-72
2022/05/27 06:58:49;;;;;;;5.80;3.60;;;;;;;;;;5068681;28;20223;-72
2022/05/27 07:01:25;;;;;;;5.03;2.80;;;;;;;;;;5071199;28;20222;-72
2022/05/27 07:04:10;;;;;;;;;;;;;;;;;;;;;
2022/05/27 07:06:56;;;;;;;5.17;3.10;;;;;;;;;;5066044;28;20198;-73
2022/05/27 07:09:36;;;;;;;5.67;2.83;;;;;;;;;;5059849;28;20265;-72
2022/05/27 07:12:11;;;;;;;5.53;2.77;;;;;;;;;;5067576;28;20248;-72
2022/05/27 07:15:04;;;;;;;6.77;2.80;;;;;;;;;;5069573;28;20210;-73
2022/05/27 07:17:50;;;;;;;7.57;2.70;;;;;;;;;;5071354;28;20732;-72
2022/05/27 07:20:30;;;;;;;6.67;2.50;;;;;;;;;;5081586;28;20197;-72
2022/05/27 07:23:13;;;;;;;6.63;3.07;;;;;;;;;;5054997;28;20203;-73
2022/05/27 07:26:02;;;;;;;6.67;2.57;;;;;;;;;;5052956;28;20227;-72
2022/05/27 07:28:51;;;;;;;6.27;2.67;;;;;;;;;;5059854;28;20222;-73
2022/05/27 07:31:29;;;;;;;9.47;3.63;;;;;;;;;;5058686;28;20207;-72
2022/05/27 07:34:11;;;;;;;8.50;3.27;;;;;;;;;;5070587;28;20202;-72
2022/05/27 07:40:02;;;;;;;7.03;2.30;;;;;;;;;;5073096;28;20555;-72
2022/05/27 07:42:49;;;;;;;11.03;3.20;;;;;;;;;;5068076;28;20213;-72
2022/05/27 07:45:41;;;;;;;7.67;2.90;;;;;;;;;;5072922;28;20265;-72
2022/05/27 08:00:24;;;;;;;9.00;2.90;;;;;;;;;;5069315;28;20217;-72
2022/05/27 08:06:32;;;;;;;5.73;3.03;;;;;;;;;;5064111;28;20230;-72
2022/05/27 08:09:19;;;;;;;6.10;2.83;;;;;;;;;;5064569;28;20262;-72
2022/05/27 08:12:02;;;;;;;9.40;3.30;;;;;;;;;;5060502;28;20207;-73
2022/05/27 08:14:31;;;;;;;6.47;2.50;;;;;;;;;;5063387;28;20248;-73
2022/05/27 08:16:59;;;;;;;10.70;3.20;;;;;;;;;;5059712;28;20203;-72
2022/05/27 08:19:28;;;;;;;8.07;3.00;;;;;;;;;;5068607;28;20541;-72
2022/05/27 08:21:58;;;;;;;8.67;2.83;;;;;;;;;;5067941;28;20210;-72
2022/05/27 08:24:27;;;;;;;7.93;3.10;;;;;;;;;;5072607;28;20221;-72
2022/05/27 08:26:55;;;;;;;6.07;2.57;;;;;;;;;;5069789;28;20615;-73
2022/05/27 08:29:24;;;;;;;11.70;3.23;;;;;;;;;;5072756;28;20202;-72
2022/05/27 08:31:53;;;;;;;8.03;4.03;;;;;;;;;;5065055;28;20202;-72
2022/05/27 08:39:56;;;;;;;9.23;2.67;;;;;;;;;;5067544;28;20587;-73
2022/05/27 08:42:32;;;;;;;7.77;2.70;;;;;;;;;;5068462;28;20563;-73
2022/05/27 08:45:04;;;;;;;6.67;2.57;;;;;;;;;;5070035;28;20225;-73
2022/05/27 08:47:35;;;;;;;5.23;2.37;;;;;;;;;;5069854;28;20222;-73
2022/05/27 08:50:10;;;;;;;7.82;2.78;;;;;;;;;;5070380;28;20254;-73
2022/05/27 08:52:43;;;;;;;6.80;2.20;;;;;;;;;;5071472;28;20622;-73
2022/05/27 09:00:50;;;;;;;9.00;2.80;;;;;;;;;;5054030;28;20213;-73
2022/05/27 09:03:19;;;;;;;9.03;3.00;;;;;;;;;;5063123;28;20210;-72
2022/05/27 09:06:03;;;;;;;6.20;2.70;;;;;;;;;;5059437;28;20214;-74
2022/05/27 09:08:33;;;;;;;6.97;3.20;;;;;;;;;;5059170;28;20230;-73
2022/05/27 09:11:07;;;;;;;6.07;3.30;;;;;;;;;;5072473;28;20210;-74
2022/05/27 09:13:39;;;;;;;8.67;2.90;;;;;;;;;;5070636;28;20604;-73
2022/05/27 09:16:12;;;;;;;7.10;2.90;;;;;;;;;;5072052;28;20202;-73
2022/05/27 09:18:47;;;;;;;10.13;3.40;;;;;;;;;;5072473;28;20226;-73
2022/05/27 09:21:21;;;;;;;10.37;3.27;;;;;;;;;;5072449;28;20263;-74
2022/05/27 09:24:10;;;;;;;6.13;3.07;;;;;;;;;;5071690;28;20214;-73
2022/05/27 09:26:43;;;;;;;7.30;3.67;;;;;;;;;;5067704;28;20280;-73
2022/05/27 09:29:19;;;;;;;8.37;3.10;;;;;;;;;;5075420;28;20237;-73
2022/05/27 09:31:49;;;;;;;8.47;2.93;;;;;;;;;;5076439;28;20201;-73
2022/05/27 09:34:18;;;;;;;10.43;3.50;;;;;;;;;;5076749;28;20228;-74
2022/05/27 09:36:50;;;;;;;8.87;2.83;;;;;;;;;;5074700;28;20612;-74
2022/05/27 09:39:22;;;;;;;8.93;2.70;;;;;;;;;;5074871;28;20233;-74
2022/05/27 09:41:56;;;;;;;6.82;2.50;;;;;;;;;;5074798;28;20265;-73
2022/05/27 09:44:26;;;;;;;11.20;3.13;;;;;;;;;;5074858;28;20198;-73
2022/05/27 09:46:54;;;;;;;8.27;2.70;;;;;;;;;;5075141;28;20751;-73
2022/05/27 09:49:23;;;;;;;8.38;2.42;;;;;;;;;;5074514;28;20210;-72
2022/05/27 09:51:52;;;;;;;4.43;2.38;;;;;;;;;;5075508;28;20207;-73
2022/05/27 09:54:33;;;;;;;7.40;2.95;;;;;;;;;;5074996;28;20202;-72
2022/05/27 09:57:04;;;;;;;8.00;2.95;;;;;;;;;;5074201;28;20564;-73
2022/05/27 09:59:37;;;;;;;5.88;2.72;;;;;;;;;;5073395;28;20649;-73
2022/05/27 10:02:16;;;;;;;6.38;3.53;;;;;;;;;;5075357;28;20248;-73
2022/05/27 10:04:56;;;;;;;10.25;3.20;;;;;;;;;;5075302;28;20202;-73
2022/05/27 10:07:29;;;;;;;7.55;3.30;;;;;;;;;;5075118;28;20227;-73
2022/05/27 10:09:58;;;;;;;7.50;3.03;;;;;;;;;;5073997;28;20677;-73
2022/05/27 10:12:33;;;;;;;8.33;3.50;;;;;;;;;;5073923;28;20333;-74
2022/05/27 10:15:01;;;;;;;9.03;2.93;;;;;;;;;;5073423;28;20255;-73
2022/05/27 10:17:35;;;;;;;7.03;2.70;;;;;;;;;;5065788;28;20277;-72
2022/05/27 10:20:19;;;;;;;8.10;3.07;;;;;;;;;;5061465;28;20267;-73
2022/05/27 10:23:01;;;;;;;8.50;2.72;;;;;;;;;;5069456;28;20206;-72
2022/05/27 10:25:31;;;;;;;8.13;3.00;;;;;;;;;;5066025;28;20229;-73
2022/05/27 10:28:01;;;;;;;5.80;2.63;;;;;;;;;;5059850;28;20255;-72
2022/05/27 10:30:31;;;;;;;8.35;2.65;;;;;;;;;;5062513;28;20199;-72
2022/05/27 10:33:14;;;;;;;8.75;3.20;;;;;;;;;;5074832;28;20273;-72
2022/05/27 10:35:45;;;;;;;8.30;2.55;;;;;;;;;;5069381;28;20206;-73
2022/05/27 10:38:21;;;;;;;9.27;2.80;;;;;;;;;;5070248;28;20272;-73
2022/05/27 10:40:53;;;;;;;5.85;2.30;;;;;;;;;;5070673;28;20203;-72
2022/05/27 10:43:29;;;;;;;5.97;2.35;;;;;;;;;;5069162;28;20222;-73
2022/05/27 10:46:00;;;;;;;6.75;3.22;;;;;;;;;;5068884;28;20233;-74
2022/05/27 10:48:44;;;;;;;8.32;2.72;;;;;;;;;;5064537;28;20219;-72
2022/05/27 10:51:15;;;;;;;8.18;2.55;;;;;;;;;;5061802;28;20202;-75
2022/05/27 10:53:52;;;;;;;8.15;2.33;;;;;;;;;;5074374;28;20230;-73
2022/05/27 10:56:28;;;;;;;9.55;2.80;;;;;;;;;;5071657;28;20646;-72
2022/05/27 11:02:07;;;;;;;6.07;2.15;;;;;;;;;;5062707;28;20206;-72
2022/05/27 11:04:51;;;;;;;7.97;2.30;;;;;;;;;;5066124;28;20203;-73
2022/05/27 11:07:25;;;;;;;5.90;2.15;;;;;;;;;;5054974;28;20292;-72
2022/05/27 11:10:03;;;;;;;5.57;2.10;;;;;;;;;;5063861;28;20671;-71
2022/05/27 11:15:37;;;;;;;8.15;2.28;;;;;;;;;;5070604;28;20657;-72
2022/05/27 11:18:26;;;;;;;6.47;2.50;;;;;;;;;;5083147;28;20228;-73
2022/05/27 11:21:00;;;;;;;9.02;2.75;;;;;;;;;;5074801;28;20206;-72
2022/05/27 11:23:36;;;;;;;5.15;2.13;;;;;;;;;;5065373;28;20203;-73
2022/05/27 11:26:09;;;;;;;7.13;2.22;;;;;;;;;;5066960;28;20566;-73
2022/05/27 11:29:03;;;;;;;5.70;2.45;;;;;;;;;;5055341;28;20222;-74
2022/05/27 11:31:40;;;;;;;8.77;2.58;;;;;;;;;;5062089;28;20677;-72
2022/05/27 11:34:11;;;;;;;6.03;2.67;;;;;;;;;;5066075;28;20541;-73
2022/05/27 11:36:58;;;;;;;8.25;2.60;;;;;;;;;;5063928;28;20207;-72
2022/05/27 11:39:47;;;;;;;6.97;2.92;;;;;;;;;;5054168;28;20211;-72
2022/05/27 11:42:31;;;;;;;14.43;3.50;;;;;;;;;;5064368;28;20300;-72
2022/05/27 11:45:06;;;;;;;5.40;2.37;;;;;;;;;;5054284;28;20581;-73
2022/05/27 11:47:52;;;;;;;7.63;2.40;;;;;;;;;;5061666;28;20232;-73
2022/05/27 11:50:26;;;;;;;6.55;2.75;;;;;;;;;;5066868;28;20218;-73
2022/05/27 11:53:03;;;;;;;7.78;2.65;;;;;;;;;;5069394;28;20615;-73
2022/05/27 11:55:44;;;;;;;7.90;2.63;;;;;;;;;;5069866;28;20198;-73
2022/05/27 11:58:17;;;;;;;10.43;2.63;;;;;;;;;;5067912;28;20222;-73
2022/05/27 12:00:47;;;;;;;9.07;2.72;;;;;;;;;;5066555;28;20210;-73
2022/05/27 12:03:19;;;;;;;8.20;2.20;;;;;;;;;;5063424;28;20206;-73
2022/05/27 12:05:49;;;;;;;9.52;2.90;;;;;;;;;;5067984;28;20252;-72
2022/05/27 12:08:21;;;;;;;9.82;2.50;;;;;;;;;;5072096;28;20605;-72
2022/05/27 12:10:50;;;;;;;7.78;2.10;;;;;;;;;;5065702;28;20203;-73
2022/05/27 12:13:27;;;;;;;6.28;2.55;;;;;;;;;;5053071;28;20222;-73
2022/05/27 12:15:57;;;;;;;7.30;2.50;;;;;;;;;;5069470;28;20214;-72
2022/05/27 12:18:29;;;;;;;5.70;2.22;;;;;;;;;;5056641;28;20214;-72
2022/05/27 12:20:58;;;;;;;6.78;2.70;;;;;;;;;;5064019;28;20199;-72
2022/05/27 12:23:29;;;;;;;6.88;2.20;;;;;;;;;;5064228;28;20256;-72
2022/05/27 12:26:00;;;;;;;5.60;2.70;;;;;;;;;;5056214;28;20229;-72
2022/05/27 12:28:30;;;;;;;5.35;2.00;;;;;;;;;;5056664;28;20218;-72
2022/05/27 12:30:59;;;;;;;6.78;2.20;;;;;;;;;;5073755;28;20195;-72
2022/05/27 12:33:31;;;;;;;5.03;2.40;;;;;;;;;;5071528;28;20237;-72
2022/05/27 12:36:02;;;;;;;5.93;1.73;;;;;;;;;;5064990;28;20203;-72
2022/05/27 12:38:34;;;;;;;4.18;1.73;;;;;;;;;;5062140;28;20211;-74
2022/05/27 12:41:04;;;;;;;5.78;1.70;;;;;;;;;;5061710;28;20203;-72
2022/05/27 12:43:34;;;;;;;5.97;1.75;;;;;;;;;;5062931;28;20267;-73
2022/05/27 12:46:16;;;;;;;4.28;2.40;;;;;;;;;;5062331;28;20286;-73
2022/05/27 12:48:47;;;;;;;9.25;2.35;;;;;;;;;;5057759;28;20250;-72
2022/05/27 12:51:37;;;;;;;6.45;2.15;;;;;;;;;;5064948;28;20636;-72
2022/05/27 12:54:06;;;;;;;5.15;1.80;;;;;;;;;;5070111;28;20267;-72
2022/05/27 13:03:04;;;;;;;8.20;2.38;;;;;;;;;;5065889;28;20214;-73
2022/05/27 13:09:10;;;;;;;8.60;2.40;;;;;;;;;;5068425;28;20592;-73
2022/05/27 13:11:44;;;;;;;7.95;2.17;;;;;;;;;;5063915;28;20218;-72
2022/05/27 13:14:20;;;;;;;5.32;2.17;;;;;;;;;;5062604;28;20264;-73
2022/05/27 13:17:01;;;;;;;4.93;1.73;;;;;;;;;;5063621;28;20205;-73
2022/05/27 13:19:33;;;;;;;7.55;2.15;;;;;;;;;;5066874;28;20202;-72
2022/05/27 13:22:03;;;;;;;3.72;1.73;;;;;;;;;;5081658;28;20197;-73
2022/05/27 13:24:36;;;;;;;9.02;1.90;;;;;;;;;;5075775;28;20190;-72
2022/05/27 13:27:23;;;;;;;8.55;2.42;;;;;;;;;;5076291;28;20192;-71
2022/05/27 13:29:59;;;;;;;7.72;2.30;;;;;;;;;;5068690;28;20670;-74
2022/05/27 13:32:30;;;;;;;5.75;1.80;;;;;;;;;;5070043;28;20203;-75
2022/05/27 13:35:00;;;;;;;6.07;1.98;;;;;;;;;;5067798;28;20231;-77
2022/05/27 13:37:36;;;;;;;9.07;1.77;;;;;;;;;;5057694;28;20577;-73
2022/05/27 13:40:08;;;;;;;9.15;2.05;;;;;;;;;;5070221;28;20240;-76
2022/05/27 13:42:40;;;;;;;8.97;2.20;;;;;;;;;;5073251;28;20206;-72
2022/05/27 13:45:11;;;;;;;4.60;1.53;;;;;;;;;;5072304;28;20199;-72
2022/05/27 13:47:56;;;;;;;16.95;3.35;;;;;;;;;;5067736;28;20268;-72
2022/05/27 13:50:26;;;;;;;4.80;1.93;;;;;;;;;;5069211;28;20211;-72
2022/05/27 13:52:55;;;;;;;5.30;2.10;;;;;;;;;;5075001;28;20206;-74
2022/05/27 13:55:28;;;;;;;4.88;1.70;;;;;;;;;;5073402;28;20336;-72
2022/05/27 13:58:01;;;;;;;11.23;2.40;;;;;;;;;;5066647;28;20706;-73
2022/05/27 14:00:34;;;;;;;9.35;2.28;;;;;;;;;;5072112;28;20198;-72
2022/05/27 14:03:03;;;;;;;9.27;2.08;;;;;;;;;;5063895;28;20209;-72
2022/05/27 14:05:32;;;;;;;8.35;2.38;;;;;;;;;;5072646;28;20210;-72
2022/05/27 14:08:01;;;;;;;9.70;2.60;;;;;;;;;;5067614;28;20226;-73
2022/05/27 14:10:32;;;;;;;9.40;2.75;;;;;;;;;;5060624;28;20206;-71
2022/05/27 14:13:15;;;;;;;8.93;2.45;;;;;;;;;;5061989;28;20234;-73
2022/05/27 14:15:43;;;;;;;6.60;1.75;;;;;;;;;;5061932;28;20256;-72
2022/05/27 14:18:29;;;;;;;15.30;2.75;;;;;;;;;;5065832;28;20237;-72
2022/05/27 14:23:46;;;;;;;8.25;1.90;;;;;;;;;;5074165;28;20206;-72
2022/05/27 14:26:16;;;;;;;11.73;2.03;;;;;;;;;;5064226;28;20205;-72
2022/05/27 14:28:47;;;;;;;6.10;2.13;;;;;;;;;;5073495;28;20218;-71
2022/05/27 14:31:18;;;;;;;15.23;2.80;;;;;;;;;;5063159;28;20558;-72
2022/05/27 14:33:49;;;;;;;20.20;2.80;;;;;;;;;;5067606;28;20207;-71
2022/05/27 14:36:18;;;;;;;9.88;2.10;;;;;;;;;;5068882;28;20203;-72
2022/05/27 14:38:49;;;;;;;6.63;2.78;;;;;;;;;;5066163;28;20214;-72
2022/05/27 14:41:20;;;;;;;5.65;2.00;;;;;;;;;;5069896;28;20209;-72
2022/05/27 14:43:50;;;;;;;5.72;2.08;;;;;;;;;;5070913;28;20718;-72
2022/05/27 14:46:20;;;;;;;8.48;2.45;;;;;;;;;;5071329;28;20206;-73
2022/05/27 14:48:51;;;;;;;8.43;2.72;;;;;;;;;;5071502;28;20218;-72
2022/05/27 14:51:21;;;;;;;7.03;2.67;;;;;;;;;;5062903;28;20207;-73
2022/05/27 14:53:51;;;;;;;6.17;1.80;;;;;;;;;;4711038;28;10000376;-73
2022/05/27 14:56:23;;;;;;;6.57;2.30;;;;;;;;;;5054434;28;20436;-72
2022/05/27 14:58:52;;;;;;;11.93;3.37;;;;;;;;;;5064940;28;20230;-72
2022/05/27 15:01:28;;;;;;;8.87;2.43;;;;;;;;;;5069654;28;20691;-72
2022/05/27 15:04:17;;;;;;;6.83;2.53;;;;;;;;;;5066732;28;20669;-73
2022/05/27 15:06:46;;;;;;;6.93;2.60;;;;;;;;;;5060613;28;20210;-72
2022/05/27 15:09:17;;;;;;;7.87;2.30;;;;;;;;;;5061439;28;20227;-73
2022/05/27 15:11:47;;;;;;;4.77;1.97;;;;;;;;;;5068612;28;20218;-73
2022/05/27 15:14:23;;;;;;;8.10;2.60;;;;;;;;;;5063467;28;20206;-73
2022/05/27 15:17:00;;;;;;;6.90;1.90;;;;;;;;;;5054896;28;20199;-72
2022/05/27 15:19:30;;;;;;;4.80;1.70;;;;;;;;;;5063300;28;20198;-72
2022/05/27 15:22:03;;;;;;;6.73;1.97;;;;;;;;;;5077860;28;20277;-72
2022/05/27 15:24:35;;;;;;;7.60;1.70;;;;;;;;;;5058343;28;20203;-71
2022/05/27 15:35:32;;;;;;;7.97;2.50;;;;;;;;;;5057173;28;20609;-72
2022/05/27 15:38:02;;;;;;;8.07;2.17;;;;;;;;;;5052741;28;20219;-72
2022/05/27 15:40:31;;;;;;;9.87;2.60;;;;;;;;;;5061112;28;20203;-72
2022/05/27 15:43:01;;;;;;;7.53;2.37;;;;;;;;;;5053024;28;20295;-74
2022/05/27 15:45:29;;;;;;;5.83;2.30;;;;;;;;;;5055546;28;20195;-72
2022/05/27 15:47:58;;;;;;;6.63;2.93;;;;;;;;;;5073258;28;20230;-73
2022/05/27 15:50:26;;;;;;;8.57;3.20;;;;;;;;;;5056017;28;20219;-72
2022/05/27 15:52:55;;;;;;;6.67;2.13;;;;;;;;;;5071593;28;20642;-72
2022/05/27 15:55:23;;;;;;;7.90;2.00;;;;;;;;;;5054593;28;20199;-72
2022/05/27 15:57:52;;;;;;;10.40;2.13;;;;;;;;;;5069329;28;20234;-73
2022/05/27 16:00:22;;;;;;;7.45;2.25;;;;;;;;;;5065219;28;20202;-72
2022/05/27 16:02:50;;;;;;;6.90;2.40;;;;;;;;;;5072799;28;20264;-72
2022/05/27 16:05:20;;;;;;;6.83;2.23;;;;;;;;;;5068196;28;20210;-72
2022/05/27 16:07:48;;;;;;;8.53;2.50;;;;;;;;;;5067443;28;20214;-72
2022/05/27 16:10:17;;;;;;;6.70;3.00;;;;;;;;;;5069607;28;20632;-72
2022/05/27 16:12:46;;;;;;;6.83;2.07;;;;;;;;;;5063833;28;20195;-71
2022/05/27 16:15:15;;;;;;;8.63;2.30;;;;;;;;;;5063223;28;20202;-72
2022/05/27 16:17:55;;;;;;;7.47;2.60;;;;;;;;;;5061791;28;20276;-72
2022/05/27 16:20:24;;;;;;;8.50;2.53;;;;;;;;;;5059587;28;20284;-72
2022/05/27 16:22:54;;;;;;;6.47;2.30;;;;;;;;;;5063638;28;20206;-72
2022/05/27 16:25:25;;;;;;;6.97;2.70;;;;;;;;;;5064847;28;20198;-73